Time;durP1;ratioP1;P1;durP2;ratioP2;P2;SDS_P1;SDS_P2;PMS_P1;PMS_P2;Temp;Humidity;BMP_temperature;BMP_pressure;BME280_temperature;BME280_humidity;BME280_pressure;Samples;Min_cycle;Max_cycle;Signal;HPM_P1;HPM_P2
2021/03/18 00:01:54;;;;;;;2.90;1.35;;;18.50;67.90;;;;;;5129154;27;20026;-47
2021/03/18 00:04:20;;;;;;;2.00;1.35;;;18.50;67.80;;;;;;5129224;27;20504;-45
2021/03/18 00:06:45;;;;;;;2.22;1.40;;;18.50;67.90;;;;;;5132536;27;20031;-46
2021/03/18 00:09:13;;;;;;;2.45;1.55;;;18.50;68.10;;;;;;5126308;27;20035;-46
2021/03/18 00:11:40;;;;;;;2.03;1.42;;;18.50;68.20;;;;;;5127936;27;20098;-46
2021/03/18 00:14:06;;;;;;;1.85;1.60;;;18.50;68.10;;;;;;5116389;27;20038;-46
2021/03/18 00:16:32;;;;;;;1.80;1.33;;;18.50;68.20;;;;;;5128652;27;20023;-47
2021/03/18 00:18:58;;;;;;;2.17;1.60;;;18.50;68.30;;;;;;5108075;27;20047;-47
2021/03/18 00:21:23;;;;;;;1.52;1.42;;;18.50;68.10;;;;;;5125626;27;20076;-46
2021/03/18 00:23:49;;;;;;;1.60;1.38;;;18.50;68.10;;;;;;5125557;27;20496;-45
2021/03/18 00:26:18;;;;;;;1.25;1.10;;;18.50;68.10;;;;;;5122745;27;20019;-47
2021/03/18 00:28:43;;;;;;;1.60;1.17;;;18.50;68.20;;;;;;5115380;27;20098;-45
2021/03/18 00:31:09;;;;;;;1.65;1.10;;;18.50;68.10;;;;;;5133181;27;20548;-46
2021/03/18 00:33:35;;;;;;;2.72;1.10;;;18.50;68.10;;;;;;5126318;27;20031;-46
2021/03/18 00:36:00;;;;;;;3.65;1.13;;;18.50;68.20;;;;;;5129087;27;20022;-46
2021/03/18 00:38:26;;;;;;;2.20;1.40;;;18.40;68.10;;;;;;5128554;27;20031;-47
2021/03/18 00:40:57;;;;;;;1.38;1.13;;;18.50;68.20;;;;;;5113832;27;20035;-46
2021/03/18 00:43:23;;;;;;;1.77;1.20;;;18.50;68.10;;;;;;5129507;27;20042;-46
2021/03/18 00:45:49;;;;;;;1.27;1.05;;;18.50;68.10;;;;;;5128653;27;20050;-46
2021/03/18 00:48:16;;;;;;;1.83;1.20;;;18.50;68.00;;;;;;5126322;27;20035;-47
2021/03/18 00:50:43;;;;;;;1.50;1.20;;;18.40;68.10;;;;;;5125434;27;20031;-47
2021/03/18 00:53:11;;;;;;;1.88;1.13;;;18.40;68.10;;;;;;5127541;27;20500;-47
2021/03/18 00:55:38;;;;;;;1.30;1.00;;;18.40;68.00;;;;;;5121852;27;20464;-47
2021/03/18 00:58:04;;;;;;;2.97;1.20;;;18.40;67.90;;;;;;5132082;27;20035;-49
2021/03/18 01:00:41;;;;;;;1.55;1.25;;;18.40;67.90;;;;;;5124689;28;20564;-47
2021/03/18 01:03:07;;;;;;;2.13;1.20;;;18.40;68.00;;;;;;5121558;28;20156;-46
2021/03/18 01:05:36;;;;;;;1.52;1.00;;;18.40;67.90;;;;;;5121516;28;20541;-46
2021/03/18 01:08:01;;;;;;;1.45;1.23;;;18.40;67.80;;;;;;5130850;28;20020;-46
2021/03/18 01:10:28;;;;;;;1.35;1.20;;;18.40;67.70;;;;;;5114692;28;20027;-50
2021/03/18 01:12:54;;;;;;;1.10;1.00;;;18.40;67.50;;;;;;5118514;28;20028;-47
2021/03/18 01:15:20;;;;;;;1.10;1.00;;;18.40;67.70;;;;;;5124716;28;20072;-45
2021/03/18 01:17:46;;;;;;;1.35;1.10;;;18.40;67.80;;;;;;5125106;28;20493;-47
2021/03/18 01:20:13;;;;;;;1.15;1.05;;;18.40;67.60;;;;;;5114910;28;20018;-47
2021/03/18 01:22:39;;;;;;;1.13;0.90;;;18.40;67.70;;;;;;5130289;28;20050;-47
2021/03/18 01:25:05;;;;;;;1.98;1.10;;;18.40;68.30;;;;;;5118099;28;20086;-48
2021/03/18 01:27:31;;;;;;;1.17;1.08;;;18.40;67.70;;;;;;5123654;28;20023;-47
2021/03/18 01:29:57;;;;;;;0.80;0.80;;;18.40;67.60;;;;;;5107717;28;20486;-45
2021/03/18 01:32:22;;;;;;;0.95;0.82;;;18.30;67.70;;;;;;5114317;28;20127;-46
2021/03/18 01:34:48;;;;;;;1.40;1.00;;;18.40;67.60;;;;;;5111500;28;20028;-47
2021/03/18 01:37:13;;;;;;;0.80;0.80;;;18.40;67.60;;;;;;5128509;28;20481;-47
2021/03/18 01:39:39;;;;;;;1.13;1.02;;;18.30;67.80;;;;;;5124799;28;20030;-47
2021/03/18 01:42:05;;;;;;;1.33;1.23;;;18.30;67.60;;;;;;5128892;28;20031;-43
2021/03/18 01:44:30;;;;;;;1.08;0.85;;;18.30;67.80;;;;;;5126769;28;20023;-47
2021/03/18 01:46:56;;;;;;;1.48;0.93;;;18.30;67.80;;;;;;5128106;28;20040;-46
2021/03/18 01:49:22;;;;;;;1.15;0.80;;;18.30;67.80;;;;;;5115237;28;20427;-46
2021/03/18 01:51:47;;;;;;;3.25;1.23;;;18.30;67.80;;;;;;5129722;28;20034;-46
2021/03/18 01:54:13;;;;;;;1.00;0.90;;;18.30;67.90;;;;;;5124140;28;20027;-45
2021/03/18 01:56:39;;;;;;;1.35;0.80;;;18.30;67.80;;;;;;5119040;28;20099;-45
2021/03/18 01:59:04;;;;;;;0.60;0.60;;;18.30;67.80;;;;;;5113505;28;20126;-47
2021/03/18 02:01:30;;;;;;;1.08;0.80;;;18.30;67.60;;;;;;5111930;28;20110;-46
2021/03/18 02:03:56;;;;;;;1.08;0.98;;;18.30;67.60;;;;;;5127472;28;20034;-48
2021/03/18 02:06:21;;;;;;;1.52;0.93;;;18.30;67.50;;;;;;5127893;28;20034;-46
2021/03/18 02:08:47;;;;;;;0.93;0.93;;;18.30;67.60;;;;;;5090124;28;20019;-46
2021/03/18 02:11:12;;;;;;;0.75;0.75;;;18.30;67.60;;;;;;5118866;27;20058;-45
2021/03/18 02:13:38;;;;;;;1.17;1.08;;;18.30;67.60;;;;;;5131850;27;20031;-45
2021/03/18 02:16:05;;;;;;;1.00;1.00;;;18.30;67.50;;;;;;5130484;27;20031;-46
2021/03/18 02:18:51;;;;;;;0.85;0.82;;;18.30;67.50;;;;;;5122896;27;20088;-47
2021/03/18 02:21:44;;;;;;;1.27;1.00;;;18.20;67.50;;;;;;5109311;27;20106;-47
2021/03/18 02:24:28;;;;;;;1.17;1.00;;;18.20;67.40;;;;;;5105022;28;20028;-45
2021/03/18 02:27:08;;;;;;;0.90;0.80;;;18.20;67.60;;;;;;5102624;27;20091;-46
2021/03/18 02:30:08;;;;;;;1.30;0.90;;;18.20;67.60;;;;;;5130702;27;20051;-47
2021/03/18 02:33:00;;;;;;;1.38;0.73;;;18.20;67.50;;;;;;5118917;27;20027;-47
2021/03/18 02:35:28;;;;;;;0.80;0.80;;;18.20;67.50;;;;;;5113853;27;20102;-46
2021/03/18 02:38:09;;;;;;;0.88;0.88;;;18.20;67.50;;;;;;5098604;27;20382;-46
2021/03/18 02:40:43;;;;;;;1.23;0.70;;;18.20;67.60;;;;;;5107399;27;20088;-46
2021/03/18 02:43:11;;;;;;;0.77;0.75;;;18.20;67.30;;;;;;5117097;27;20447;-45
2021/03/18 02:45:38;;;;;;;1.20;0.98;;;18.20;67.30;;;;;;5112291;27;20084;-46
2021/03/18 02:48:05;;;;;;;1.45;1.15;;;18.20;67.30;;;;;;5103846;28;20423;-45
2021/03/18 02:50:33;;;;;;;1.92;1.20;;;18.20;67.40;;;;;;5105979;27;20512;-47
2021/03/18 02:52:59;;;;;;;0.70;0.70;;;18.20;67.40;;;;;;5116500;27;20050;-44
2021/03/18 02:55:24;;;;;;;1.13;1.00;;;18.20;67.50;;;;;;5114992;27;20019;-47
2021/03/18 02:57:51;;;;;;;0.73;0.70;;;18.20;67.50;;;;;;5112657;27;20087;-44
2021/03/18 03:00:17;;;;;;;1.10;0.90;;;18.20;67.50;;;;;;5113037;27;20027;-46
2021/03/18 03:02:43;;;;;;;0.98;0.77;;;18.20;67.40;;;;;;5110873;27;20038;-46
2021/03/18 03:05:09;;;;;;;1.00;0.80;;;18.20;67.40;;;;;;5129555;27;20034;-47
2021/03/18 03:07:35;;;;;;;1.00;0.70;;;18.20;67.40;;;;;;5113435;27;20378;-45
2021/03/18 03:10:01;;;;;;;1.45;0.73;;;18.20;67.40;;;;;;5125097;27;20014;-49
2021/03/18 03:12:27;;;;;;;0.75;0.75;;;18.20;67.40;;;;;;5126493;27;20030;-48
2021/03/18 03:14:54;;;;;;;0.93;0.70;;;18.20;67.40;;;;;;5126498;27;20552;-46
2021/03/18 03:17:20;;;;;;;1.00;0.90;;;18.20;67.30;;;;;;5109929;28;20076;-45
2021/03/18 03:19:46;;;;;;;0.98;0.88;;;18.20;67.40;;;;;;5097431;27;20061;-45
2021/03/18 03:22:11;;;;;;;0.98;0.95;;;18.10;67.30;;;;;;5117287;27;20023;-48
2021/03/18 03:24:37;;;;;;;1.10;1.00;;;18.10;67.40;;;;;;5107961;27;20031;-46
2021/03/18 03:27:03;;;;;;;0.77;0.77;;;18.10;67.50;;;;;;5121802;27;20024;-44
2021/03/18 03:29:29;;;;;;;1.10;0.95;;;18.10;67.40;;;;;;5122329;27;20046;-47
2021/03/18 03:31:55;;;;;;;0.90;0.77;;;18.10;67.40;;;;;;5128248;27;20401;-47
2021/03/18 03:34:21;;;;;;;0.75;0.75;;;18.10;67.30;;;;;;5115241;27;20878;-46
2021/03/18 03:36:47;;;;;;;1.45;0.80;;;18.10;67.30;;;;;;5131210;27;20114;-47
2021/03/18 03:39:12;;;;;;;0.70;0.70;;;18.10;67.30;;;;;;5118512;27;20759;-46
2021/03/18 03:41:38;;;;;;;2.45;1.00;;;18.10;67.20;;;;;;5119328;27;20015;-45
2021/03/18 03:44:04;;;;;;;0.93;0.90;;;18.10;67.10;;;;;;5116898;27;20034;-46
2021/03/18 03:46:30;;;;;;;0.90;0.88;;;18.10;67.00;;;;;;5132155;27;20767;-46
2021/03/18 03:48:55;;;;;;;1.58;0.80;;;18.10;67.10;;;;;;5129265;27;20109;-49
2021/03/18 03:51:21;;;;;;;1.10;1.00;;;18.10;66.90;;;;;;5127626;27;20477;-45
2021/03/18 03:53:52;;;;;;;0.60;0.60;;;18.10;67.00;;;;;;5128488;27;20024;-45
2021/03/18 03:56:20;;;;;;;1.50;1.40;;;18.10;67.00;;;;;;5114155;27;20047;-46
2021/03/18 03:58:57;;;;;;;0.95;0.90;;;18.10;67.00;;;;;;5104009;27;20114;-47
2021/03/18 04:01:28;;;;;;;0.80;0.80;;;18.10;66.90;;;;;;5130114;27;20034;-45
2021/03/18 04:04:09;;;;;;;1.00;0.85;;;18.10;66.70;;;;;;5129573;27;20070;-45
2021/03/18 04:06:35;;;;;;;1.02;0.80;;;18.10;66.90;;;;;;5103330;28;20382;-45
2021/03/18 04:09:02;;;;;;;1.13;0.75;;;18.10;66.90;;;;;;5120840;27;20023;-45
2021/03/18 04:11:27;;;;;;;0.93;0.80;;;18.10;67.00;;;;;;5129808;27;20024;-46
2021/03/18 04:13:53;;;;;;;2.33;0.77;;;18.00;67.00;;;;;;5145488;27;20039;-45
2021/03/18 04:16:20;;;;;;;1.02;0.70;;;18.00;67.00;;;;;;5114628;27;20034;-43
2021/03/18 04:18:45;;;;;;;1.23;0.90;;;18.00;67.00;;;;;;5109322;27;20046;-46
2021/03/18 04:21:11;;;;;;;1.48;1.13;;;18.00;67.00;;;;;;5105656;27;20019;-45
2021/03/18 04:23:37;;;;;;;1.42;1.33;;;18.00;67.00;;;;;;5127169;27;20030;-46
2021/03/18 04:26:02;;;;;;;1.25;0.95;;;18.00;67.00;;;;;;5123127;27;20079;-46
2021/03/18 04:28:32;;;;;;;0.82;0.70;;;18.00;66.70;;;;;;5110379;27;20031;-47
2021/03/18 04:30:58;;;;;;;1.50;0.95;;;18.00;66.90;;;;;;5096887;27;20038;-47
2021/03/18 04:33:25;;;;;;;1.05;0.80;;;18.00;66.90;;;;;;5101750;28;20389;-46
2021/03/18 04:35:51;;;;;;;0.90;0.60;;;18.00;66.80;;;;;;5122231;27;20027;-46
2021/03/18 04:38:17;;;;;;;1.00;0.90;;;18.00;66.90;;;;;;5111280;27;20038;-45
2021/03/18 04:40:42;;;;;;;1.10;0.80;;;18.00;66.80;;;;;;5104954;27;20024;-44
2021/03/18 04:43:08;;;;;;;1.05;0.95;;;18.00;66.90;;;;;;5112831;28;20023;-45
2021/03/18 04:45:33;;;;;;;1.25;1.00;;;18.00;66.80;;;;;;5129238;27;20583;-46
2021/03/18 04:48:00;;;;;;;0.80;0.80;;;17.90;66.50;;;;;;5122910;27;20107;-46
2021/03/18 04:50:26;;;;;;;1.27;1.13;;;17.90;66.60;;;;;;5135719;27;20046;-52
2021/03/18 04:52:52;;;;;;;0.90;0.80;;;17.90;66.50;;;;;;5095138;27;20050;-48
2021/03/18 04:55:19;;;;;;;1.00;0.90;;;17.90;66.60;;;;;;5110856;27;20447;-44
2021/03/18 04:57:57;;;;;;;1.15;0.95;;;17.90;66.80;;;;;;5106270;28;20123;-48
2021/03/18 05:00:23;;;;;;;0.80;0.80;;;17.90;66.60;;;;;;5110013;27;20088;-45
2021/03/18 05:02:49;;;;;;;0.82;0.80;;;17.90;66.50;;;;;;5104809;28;20035;-46
2021/03/18 05:05:16;;;;;;;2.40;1.00;;;17.90;66.50;;;;;;5098528;28;20077;-45
2021/03/18 05:07:45;;;;;;;0.77;0.70;;;17.90;66.50;;;;;;5129364;27;20030;-46
2021/03/18 05:10:12;;;;;;;0.93;0.82;;;17.90;66.50;;;;;;5122092;28;20037;-45
2021/03/18 05:12:38;;;;;;;1.13;1.00;;;17.90;66.30;;;;;;5100238;28;20084;-46
2021/03/18 05:15:06;;;;;;;0.88;0.88;;;17.90;66.40;;;;;;5105242;28;20035;-50
2021/03/18 05:17:32;;;;;;;1.30;0.70;;;17.90;66.50;;;;;;5111136;28;20027;-45
2021/03/18 05:19:57;;;;;;;0.90;0.77;;;17.90;66.50;;;;;;5112336;28;20452;-46
2021/03/18 05:22:23;;;;;;;0.82;0.73;;;17.90;66.40;;;;;;5128624;28;20110;-47
2021/03/18 05:24:48;;;;;;;1.00;0.90;;;17.90;66.40;;;;;;5108445;28;20094;-46
2021/03/18 05:27:14;;;;;;;1.08;0.98;;;17.90;66.30;;;;;;5086892;28;20028;-47
2021/03/18 05:29:40;;;;;;;1.10;1.00;;;17.90;66.50;;;;;;5125748;28;20027;-44
2021/03/18 05:32:05;;;;;;;0.90;0.77;;;17.90;66.40;;;;;;5129063;28;20027;-44
2021/03/18 05:34:31;;;;;;;0.80;0.80;;;17.90;66.50;;;;;;5115338;28;20031;-45
2021/03/18 05:36:56;;;;;;;0.90;0.90;;;17.90;66.50;;;;;;5130249;28;20023;-46
2021/03/18 05:39:22;;;;;;;1.13;0.90;;;17.90;66.20;;;;;;5125350;28;20039;-47
2021/03/18 05:41:48;;;;;;;1.02;0.93;;;17.90;66.30;;;;;;5108869;28;20031;-45
2021/03/18 05:44:13;;;;;;;0.70;0.70;;;17.90;66.10;;;;;;5122664;27;20023;-46
2021/03/18 05:46:40;;;;;;;1.08;0.80;;;17.90;66.10;;;;;;5138503;27;20389;-44
2021/03/18 05:49:05;;;;;;;1.50;0.80;;;17.90;66.30;;;;;;5117395;27;20023;-45
2021/03/18 05:51:32;;;;;;;1.00;0.80;;;17.90;66.30;;;;;;5106037;27;20480;-48
2021/03/18 05:53:58;;;;;;;0.82;0.82;;;17.90;66.30;;;;;;5125925;27;20061;-47
2021/03/18 05:56:24;;;;;;;1.15;0.80;;;17.90;67.30;;;;;;5111754;27;20456;-47
2021/03/18 05:58:50;;;;;;;1.25;0.90;;;17.90;66.50;;;;;;5122449;27;20047;-47
2021/03/18 06:01:16;;;;;;;1.58;0.95;;;17.90;67.30;;;;;;5114023;27;20024;-47
2021/03/18 06:03:43;;;;;;;1.85;0.80;;;18.00;67.50;;;;;;5112407;27;20031;-46
2021/03/18 06:06:08;;;;;;;4.10;0.90;;;18.00;68.20;;;;;;5109074;27;20024;-49
2021/03/18 06:08:35;;;;;;;2.67;0.73;;;18.00;67.60;;;;;;5111882;27;20067;-47
2021/03/18 06:11:01;;;;;;;0.95;0.90;;;18.00;67.70;;;;;;5122853;27;20042;-46
2021/03/18 06:13:27;;;;;;;1.05;0.88;;;18.00;67.20;;;;;;5128994;27;20453;-47
2021/03/18 06:15:53;;;;;;;1.60;1.08;;;18.00;66.90;;;;;;5126198;27;20035;-47
2021/03/18 06:18:20;;;;;;;2.92;1.13;;;18.10;66.40;;;;;;5121477;27;20071;-47
2021/03/18 06:20:50;;;;;;;2.80;1.05;;;18.10;66.50;;;;;;5103751;27;20480;-42
2021/03/18 06:23:15;;;;;;;1.85;1.00;;;18.00;66.30;;;;;;5124055;27;20031;-44
2021/03/18 06:25:41;;;;;;;1.05;0.88;;;18.10;66.30;;;;;;5122697;27;24861;-45
2021/03/18 06:28:17;;;;;;;2.75;1.23;;;18.20;65.80;;;;;;5124986;27;20389;-48
2021/03/18 06:31:04;;;;;;;1.77;1.00;;;18.10;65.70;;;;;;5119343;27;20032;-45
2021/03/18 06:33:50;;;;;;;1.50;0.85;;;18.10;65.90;;;;;;5124917;27;20031;-46
2021/03/18 06:36:23;;;;;;;2.20;1.30;;;18.10;66.00;;;;;;5131297;27;20407;-48
2021/03/18 06:39:07;;;;;;;2.73;1.00;;;18.00;65.80;;;;;;5124971;27;20042;-43
2021/03/18 06:41:38;;;;;;;2.70;1.15;;;18.00;66.30;;;;;;5130315;27;20016;-46
2021/03/18 06:44:05;;;;;;;1.75;1.13;;;18.00;66.00;;;;;;5117141;27;20515;-48
2021/03/18 06:46:31;;;;;;;1.52;1.00;;;18.00;66.10;;;;;;5131200;27;20047;-46
2021/03/18 06:48:56;;;;;;;1.35;1.20;;;18.00;66.50;;;;;;5110026;27;20023;-44
2021/03/18 06:51:23;;;;;;;2.28;1.00;;;18.00;66.60;;;;;;5123477;27;20397;-47
2021/03/18 06:53:49;;;;;;;2.03;1.00;;;18.00;66.50;;;;;;5118507;27;20481;-47
2021/03/18 06:56:31;;;;;;;1.55;0.80;;;18.00;66.30;;;;;;5116903;27;20031;-45
2021/03/18 06:58:57;;;;;;;1.73;0.80;;;18.00;66.60;;;;;;5131529;27;20401;-45
2021/03/18 07:01:27;;;;;;;1.00;0.88;;;18.00;66.30;;;;;;5114212;27;20017;-46
2021/03/18 07:04:03;;;;;;;1.15;1.00;;;18.00;66.40;;;;;;5126534;27;20031;-45
2021/03/18 07:06:33;;;;;;;1.15;0.90;;;18.10;66.40;;;;;;5127880;27;20019;-45
2021/03/18 07:09:10;;;;;;;1.77;1.10;;;18.10;66.60;;;;;;5121365;27;20027;-45
2021/03/18 07:11:38;;;;;;;2.25;1.02;;;18.10;66.50;;;;;;5102915;27;20035;-45
2021/03/18 07:14:04;;;;;;;0.82;0.70;;;18.10;67.10;;;;;;5113353;27;20035;-45
2021/03/18 07:16:47;;;;;;;1.77;1.20;;;18.00;66.90;;;;;;5121838;27;20054;-46
2021/03/18 07:19:23;;;;;;;2.22;0.90;;;18.00;67.80;;;;;;5122785;27;20083;-46
2021/03/18 07:21:49;;;;;;;1.98;1.02;;;18.00;68.50;;;;;;5103457;27;20031;-45
2021/03/18 07:24:25;;;;;;;1.30;1.00;;;18.00;68.60;;;;;;5095707;27;20119;-45
2021/03/18 07:26:51;;;;;;;2.53;1.20;;;18.00;68.60;;;;;;5114880;27;20035;-44
2021/03/18 07:29:18;;;;;;;1.58;1.20;;;17.90;68.30;;;;;;5111621;27;20035;-43
2021/03/18 07:31:44;;;;;;;1.65;1.00;;;17.90;68.40;;;;;;5115578;27;20069;-45
2021/03/18 07:34:10;;;;;;;2.15;1.38;;;17.90;68.30;;;;;;5114303;27;20251;-44
2021/03/18 07:36:37;;;;;;;1.98;1.10;;;17.90;68.20;;;;;;5114049;27;20031;-49
2021/03/18 07:39:04;;;;;;;1.10;1.00;;;17.90;67.80;;;;;;5101562;27;20101;-43
2021/03/18 07:41:30;;;;;;;1.25;1.00;;;17.90;67.90;;;;;;5112089;27;20505;-46
2021/03/18 07:43:55;;;;;;;1.80;1.08;;;17.90;67.50;;;;;;5090391;27;20031;-35
2021/03/18 07:46:22;;;;;;;1.30;1.00;;;17.90;67.60;;;;;;5099422;27;20055;-47
2021/03/18 07:48:51;;;;;;;2.17;1.40;;;17.90;67.60;;;;;;5112556;27;20031;-46
2021/03/18 07:51:17;;;;;;;2.20;1.30;;;17.90;67.40;;;;;;5101580;27;20509;-40
2021/03/18 07:53:50;;;;;;;2.92;1.15;;;17.90;66.80;;;;;;5100960;27;20027;-42
2021/03/18 07:56:16;;;;;;;3.77;1.47;;;18.00;66.80;;;;;;5101472;27;20130;-42
2021/03/18 07:58:43;;;;;;;2.08;1.30;;;18.00;66.70;;;;;;5075904;27;20697;-44
2021/03/18 08:01:31;;;;;;;1.52;1.30;;;18.00;66.40;;;;;;5117353;27;20031;-44
2021/03/18 08:03:57;;;;;;;4.75;1.50;;;18.10;66.20;;;;;;5112942;27;20058;-44
2021/03/18 08:06:41;;;;;;;2.08;1.10;;;18.10;66.10;;;;;;5114458;27;20519;-44
2021/03/18 08:09:14;;;;;;;1.33;1.23;;;18.10;66.10;;;;;;5115466;27;20031;-46
2021/03/18 08:11:41;;;;;;;3.53;1.33;;;18.10;65.90;;;;;;5119477;27;20039;-46
2021/03/18 08:14:07;;;;;;;1.67;1.58;;;18.10;66.20;;;;;;5110581;27;20062;-45
2021/03/18 08:16:33;;;;;;;1.80;1.33;;;18.10;65.70;;;;;;5107844;27;20015;-50
2021/03/18 08:19:02;;;;;;;1.67;1.33;;;18.20;66.10;;;;;;5117952;27;20047;-46
2021/03/18 08:21:47;;;;;;;1.10;1.00;;;18.20;65.60;;;;;;5521594;22;22170;-26
2021/03/18 08:24:14;;;;;;;3.05;1.50;;;18.30;66.20;;;;;;5003036;28;20065;-48
2021/03/18 08:27:09;;;;;;;1.80;1.70;;;18.20;65.70;;;;;;5031492;28;20032;-45
2021/03/18 08:29:44;;;;;;;2.97;1.50;;;18.20;65.40;;;;;;5033142;28;20045;-47
2021/03/18 08:32:10;;;;;;;2.03;1.60;;;18.20;65.30;;;;;;5025994;28;20126;-47
2021/03/18 08:34:43;;;;;;;1.48;1.38;;;18.20;65.40;;;;;;5037258;28;20148;-47
2021/03/18 08:37:09;;;;;;;3.78;1.63;;;18.20;65.30;;;;;;5037038;28;20087;-48
2021/03/18 08:39:40;;;;;;;1.83;1.27;;;18.20;65.40;;;;;;5025031;28;20493;-48
2021/03/18 08:42:26;;;;;;;2.90;1.48;;;18.20;65.10;;;;;;5036572;28;20087;-47
2021/03/18 08:44:52;;;;;;;2.05;1.80;;;18.20;65.10;;;;;;5036468;28;20859;-45
2021/03/18 08:47:17;;;;;;;1.58;1.45;;;18.20;65.30;;;;;;5036096;28;20041;-47
2021/03/18 08:49:44;;;;;;;1.77;1.20;;;18.20;65.20;;;;;;5038370;28;20724;-46
2021/03/18 08:52:20;;;;;;;3.28;1.60;;;18.20;65.20;;;;;;5035821;28;20409;-46
2021/03/18 08:54:51;;;;;;;1.42;1.33;;;18.30;64.80;;;;;;5026774;28;20040;-49
2021/03/18 08:57:20;;;;;;;1.30;1.10;;;18.30;64.70;;;;;;5037744;28;20497;-44
2021/03/18 08:59:46;;;;;;;1.33;1.20;;;18.30;64.80;;;;;;5037473;28;20029;-48
2021/03/18 09:02:13;;;;;;;1.50;1.38;;;18.30;65.40;;;;;;5036582;28;20561;-44
2021/03/18 09:04:39;;;;;;;1.70;1.60;;;18.30;65.20;;;;;;5026959;28;20460;-45
2021/03/18 09:07:06;;;;;;;1.38;1.13;;;18.30;65.40;;;;;;5036963;28;20072;-48
2021/03/18 09:09:31;;;;;;;1.30;1.20;;;18.30;64.80;;;;;;5039741;28;20033;-47
2021/03/18 09:11:57;;;;;;;2.17;1.63;;;18.30;65.00;;;;;;5036560;28;20045;-46
2021/03/18 09:14:23;;;;;;;1.50;1.40;;;18.30;64.90;;;;;;5002358;28;20056;-45
2021/03/18 09:16:49;;;;;;;2.40;1.10;;;18.30;65.00;;;;;;5037639;28;20035;-46
2021/03/18 09:19:14;;;;;;;1.52;1.38;;;18.30;65.10;;;;;;5042296;28;20125;-46
2021/03/18 09:21:41;;;;;;;1.52;1.42;;;18.30;65.10;;;;;;5032082;28;20033;-42
2021/03/18 09:24:09;;;;;;;1.77;1.50;;;18.20;65.10;;;;;;5022939;28;20192;-46
2021/03/18 09:26:34;;;;;;;1.60;1.20;;;18.20;65.20;;;;;;5011454;28;20037;-45
2021/03/18 09:29:00;;;;;;;1.67;1.58;;;18.20;65.10;;;;;;5022209;28;20091;-51
2021/03/18 09:31:26;;;;;;;1.92;1.73;;;18.20;65.90;;;;;;5017212;28;20037;-49
2021/03/18 09:33:52;;;;;;;1.52;1.20;;;18.20;65.30;;;;;;5019674;28;20040;-45
2021/03/18 09:36:19;;;;;;;1.40;1.10;;;18.20;65.30;;;;;;5022777;28;20495;-44
2021/03/18 09:39:14;;;;;;;1.40;1.30;;;18.20;65.20;;;;;;5021388;28;20091;-47
2021/03/18 09:41:42;;;;;;;2.45;1.40;;;18.30;65.00;;;;;;5004515;28;20051;-48
2021/03/18 09:44:12;;;;;;;2.10;1.20;;;18.30;64.80;;;;;;5010951;28;20044;-47
2021/03/18 09:46:43;;;;;;;1.60;1.50;;;18.20;64.70;;;;;;5021146;28;20029;-48
2021/03/18 09:49:08;;;;;;;1.30;1.20;;;18.30;64.80;;;;;;5012229;28;20038;-46
2021/03/18 09:51:39;;;;;;;1.40;1.27;;;18.20;64.80;;;;;;5023496;28;20041;-48
2021/03/18 09:54:07;;;;;;;2.38;1.50;;;18.20;65.10;;;;;;5021894;28;20032;-41
2021/03/18 09:56:40;;;;;;;3.35;1.40;;;18.20;65.00;;;;;;5006776;28;20041;-42
2021/03/18 09:59:06;;;;;;;1.30;1.20;;;18.20;65.20;;;;;;5021122;28;20543;-42
2021/03/18 10:01:32;;;;;;;1.35;1.25;;;18.20;65.40;;;;;;5021527;28;20104;-41
2021/03/18 10:04:01;;;;;;;1.30;1.08;;;18.20;65.40;;;;;;5020700;28;20095;-41
2021/03/18 10:06:57;;;;;;;1.77;1.27;;;18.30;65.10;;;;;;5022744;28;20026;-42
2021/03/18 10:09:25;;;;;;;1.67;1.38;;;18.30;65.00;;;;;;5016021;28;20115;-42
2021/03/18 10:11:54;;;;;;;1.20;1.10;;;18.30;64.80;;;;;;5021366;28;20462;-41
2021/03/18 10:14:40;;;;;;;3.90;1.65;;;18.40;65.00;;;;;;5020813;28;21343;-42
2021/03/18 10:17:18;;;;;;;1.73;1.15;;;18.40;65.10;;;;;;5020852;28;20049;-43
2021/03/18 10:20:04;;;;;;;0.98;0.98;;;18.50;65.00;;;;;;5021892;28;20038;-42
2021/03/18 10:22:32;;;;;;;1.35;1.25;;;18.50;64.80;;;;;;5018767;28;20079;-44
2021/03/18 10:25:00;;;;;;;1.20;1.10;;;18.40;64.90;;;;;;5039854;28;20037;-44
2021/03/18 10:27:31;;;;;;;1.23;1.05;;;18.40;64.80;;;;;;5041167;28;20037;-40
2021/03/18 10:30:05;;;;;;;1.20;0.98;;;18.40;65.10;;;;;;5039141;28;20668;-42
2021/03/18 10:32:31;;;;;;;1.20;1.10;;;18.50;65.90;;;;;;5039680;28;20035;-41
2021/03/18 10:34:56;;;;;;;1.25;1.15;;;18.50;65.20;;;;;;5039433;28;20691;-44
2021/03/18 10:37:33;;;;;;;1.30;1.20;;;18.50;65.20;;;;;;5035813;28;20037;-43
2021/03/18 10:40:14;;;;;;;1.25;1.10;;;18.50;65.10;;;;;;5040027;28;20044;-43
2021/03/18 10:42:39;;;;;;;1.50;1.10;;;18.50;65.00;;;;;;5042264;28;20029;-43
2021/03/18 10:45:13;;;;;;;1.17;1.08;;;18.50;65.00;;;;;;5050514;28;20498;-43
2021/03/18 10:47:42;;;;;;;1.45;0.95;;;18.50;65.00;;;;;;5050975;28;20139;-42
2021/03/18 10:50:08;;;;;;;1.38;0.93;;;18.50;65.20;;;;;;5051236;28;20032;-44
2021/03/18 10:52:34;;;;;;;1.13;1.05;;;18.50;65.20;;;;;;5051385;28;20029;-44
2021/03/18 10:55:00;;;;;;;1.92;1.10;;;18.60;65.20;;;;;;5050394;28;20036;-44
2021/03/18 10:57:27;;;;;;;1.25;1.15;;;18.60;65.20;;;;;;5052455;28;20136;-43
2021/03/18 10:59:57;;;;;;;1.67;1.10;;;18.60;65.60;;;;;;5052092;28;20071;-44
2021/03/18 11:02:26;;;;;;;1.30;0.80;;;18.60;65.30;;;;;;5050325;28;20171;-44
2021/03/18 11:04:56;;;;;;;1.00;0.90;;;18.60;65.30;;;;;;5051352;28;20368;-43
2021/03/18 11:07:22;;;;;;;1.10;1.00;;;18.60;65.30;;;;;;5051800;28;20021;-42
2021/03/18 11:10:14;;;;;;;2.28;1.33;;;18.60;65.20;;;;;;5051260;28;20021;-44
2021/03/18 11:12:41;;;;;;;1.67;1.33;;;18.60;65.10;;;;;;5050852;28;20075;-43
2021/03/18 11:15:08;;;;;;;1.20;0.90;;;18.70;65.80;;;;;;5053122;28;20033;-43
2021/03/18 11:17:34;;;;;;;1.27;1.08;;;18.70;65.00;;;;;;5041272;28;20026;-42
2021/03/18 11:20:16;;;;;;;1.67;1.27;;;18.70;65.50;;;;;;5046378;28;20130;-44
2021/03/18 11:22:42;;;;;;;1.20;1.10;;;18.80;65.20;;;;;;5044974;28;20426;-43
2021/03/18 11:25:09;;;;;;;0.90;0.80;;;18.70;64.90;;;;;;5051331;28;20029;-47
2021/03/18 11:27:35;;;;;;;0.90;0.90;;;18.80;64.80;;;;;;5052361;28;20072;-41
2021/03/18 11:30:01;;;;;;;1.02;0.93;;;18.80;64.70;;;;;;5050602;28;20033;-45
2021/03/18 11:32:27;;;;;;;1.23;1.02;;;18.80;64.70;;;;;;5048179;28;20075;-43
2021/03/18 11:34:57;;;;;;;1.25;1.10;;;19.00;64.40;;;;;;5051825;28;20041;-41
2021/03/18 11:37:23;;;;;;;1.13;1.02;;;19.00;64.30;;;;;;5052576;28;20024;-43
2021/03/18 11:39:48;;;;;;;2.17;1.20;;;19.00;64.60;;;;;;5049147;28;20032;-43
2021/03/18 11:42:14;;;;;;;1.15;1.05;;;19.00;64.40;;;;;;5040390;28;20395;-41
2021/03/18 11:44:39;;;;;;;1.65;1.00;;;19.00;64.40;;;;;;5047263;28;20116;-42
2021/03/18 11:47:06;;;;;;;2.08;1.10;;;19.00;64.10;;;;;;5050461;28;20033;-43
2021/03/18 11:49:32;;;;;;;2.03;1.30;;;19.00;64.40;;;;;;5045834;28;20033;-42
2021/03/18 11:51:58;;;;;;;1.00;0.90;;;19.10;64.30;;;;;;5050988;28;20044;-42
2021/03/18 11:54:23;;;;;;;3.63;1.20;;;19.00;64.20;;;;;;5052685;28;20115;-43
2021/03/18 11:56:49;;;;;;;1.20;1.10;;;19.00;64.20;;;;;;5050641;28;20025;-43
2021/03/18 11:59:15;;;;;;;1.10;0.90;;;19.00;64.10;;;;;;5050181;28;20090;-44
2021/03/18 12:01:40;;;;;;;1.77;0.90;;;18.90;64.20;;;;;;5049931;28;20045;-46
2021/03/18 12:04:06;;;;;;;1.02;0.80;;;18.90;64.30;;;;;;5041263;28;20025;-43
2021/03/18 12:06:31;;;;;;;1.70;1.00;;;18.90;64.10;;;;;;5052167;28;20549;-43
2021/03/18 12:08:57;;;;;;;1.23;0.93;;;18.90;64.00;;;;;;5050188;28;20500;-43
2021/03/18 12:11:22;;;;;;;2.38;0.90;;;18.90;64.10;;;;;;5050126;28;20170;-44
2021/03/18 12:13:48;;;;;;;1.10;1.00;;;18.80;64.20;;;;;;5050145;28;20139;-43
2021/03/18 12:16:14;;;;;;;1.05;0.95;;;18.80;64.10;;;;;;5048975;28;20509;-42
2021/03/18 12:18:39;;;;;;;1.25;0.90;;;18.80;64.00;;;;;;4688759;28;10000197;-46
2021/03/18 12:21:05;;;;;;;1.10;1.00;;;18.80;64.50;;;;;;5048458;28;20029;-47
2021/03/18 12:23:30;;;;;;;1.30;0.80;;;18.90;64.40;;;;;;5046514;28;20075;-43
2021/03/18 12:25:56;;;;;;;1.30;0.80;;;19.00;64.50;;;;;;5046819;28;20041;-43
2021/03/18 12:28:22;;;;;;;1.60;0.80;;;19.10;64.10;;;;;;5046956;28;20099;-46
2021/03/18 12:30:50;;;;;;;0.85;0.85;;;19.20;64.20;;;;;;5045607;28;20033;-46
2021/03/18 12:33:18;;;;;;;1.60;0.80;;;19.20;63.60;;;;;;5048334;28;20036;-44
2021/03/18 12:35:44;;;;;;;1.92;0.90;;;19.30;64.00;;;;;;5049341;28;20028;-42
2021/03/18 12:38:10;;;;;;;1.33;1.23;;;19.20;63.90;;;;;;5045934;28;20502;-50
2021/03/18 12:40:36;;;;;;;0.80;0.80;;;19.30;63.80;;;;;;5047324;28;20028;-45
2021/03/18 12:43:01;;;;;;;1.25;1.15;;;19.30;63.60;;;;;;5045970;28;20033;-46
2021/03/18 12:45:27;;;;;;;1.60;0.90;;;19.30;63.70;;;;;;5048223;28;20025;-46
2021/03/18 12:47:52;;;;;;;1.45;1.10;;;19.30;63.50;;;;;;5050866;28;20552;-46
2021/03/18 12:50:20;;;;;;;1.08;0.90;;;19.30;63.60;;;;;;5055688;28;20123;-43
2021/03/18 12:52:46;;;;;;;1.10;0.98;;;19.30;63.40;;;;;;5048872;28;20017;-42